Time;durP1;ratioP1;P1;durP2;ratioP2;P2;SDS_P1;SDS_P2;PMS_P1;PMS_P2;Temp;Humidity;BMP_temperature;BMP_pressure;BME280_temperature;BME280_humidity;BME280_pressure;Samples;Min_cycle;Max_cycle;Signal;HPM_P1;HPM_P2
2024/03/03 00:00:44;;;;;;;20.17;13.35;;;;;;;11.37;100.00;99782.75;5091033;28;20044;-47
2024/03/03 00:03:12;;;;;;;21.88;12.82;;;;;;;11.34;100.00;99784.78;5090997;28;20393;-45
2024/03/03 00:05:41;;;;;;;21.75;13.23;;;;;;;11.35;100.00;99778.50;5091052;28;20073;-45
2024/03/03 00:08:09;;;;;;;21.73;14.25;;;;;;;11.36;100.00;99781.03;5091105;28;20412;-45
2024/03/03 00:10:37;;;;;;;21.90;13.95;;;;;;;11.28;100.00;99775.38;5091457;28;20048;-47
2024/03/03 00:13:05;;;;;;;22.58;13.00;;;;;;;11.29;100.00;99773.56;5091415;28;20131;-45
2024/03/03 00:15:35;;;;;;;22.50;13.57;;;;;;;11.26;100.00;99776.47;5095895;28;20048;-47
2024/03/03 00:18:05;;;;;;;26.23;13.55;;;;;;;11.27;100.00;99770.16;5092911;28;20044;-45
2024/03/03 00:20:33;;;;;;;19.08;12.15;;;;;;;11.26;100.00;99769.31;5091203;28;20040;-45
2024/03/03 00:23:01;;;;;;;18.33;12.70;;;;;;;11.22;100.00;99767.84;5091149;28;20131;-47
2024/03/03 00:25:30;;;;;;;22.48;13.20;;;;;;;11.03;100.00;99759.41;5091043;28;20048;-46
2024/03/03 00:27:58;;;;;;;20.33;13.02;;;;;;;10.91;100.00;99757.59;5090942;28;20058;-46
2024/03/03 00:30:26;;;;;;;21.45;13.63;;;;;;;11.05;100.00;99755.66;5090823;28;20044;-48
2024/03/03 00:32:56;;;;;;;20.45;13.30;;;;;;;11.15;100.00;99761.22;5091071;28;20044;-46
2024/03/03 00:35:24;;;;;;;20.02;13.07;;;;;;;11.10;100.00;99758.03;5091064;28;20048;-47
2024/03/03 00:37:52;;;;;;;18.63;12.68;;;;;;;11.08;100.00;99757.25;5090968;28;20075;-46
2024/03/03 00:40:21;;;;;;;20.45;12.57;;;;;;;11.16;100.00;99757.56;5090773;28;20135;-48
2024/03/03 00:42:49;;;;;;;19.83;12.85;;;;;;;11.20;100.00;99758.22;5090814;28;20052;-48
2024/03/03 00:45:18;;;;;;;19.83;12.93;;;;;;;10.98;100.00;99756.19;5090905;28;20052;-47
2024/03/03 00:47:48;;;;;;;20.15;12.63;;;;;;;11.04;100.00;99761.13;5093349;28;20117;-47
2024/03/03 00:50:17;;;;;;;17.30;11.93;;;;;;;10.88;100.00;99747.97;5094680;28;20610;-48
2024/03/03 00:52:46;;;;;;;16.90;12.05;;;;;;;10.90;100.00;99746.03;5094671;28;20051;-46
2024/03/03 00:55:14;;;;;;;21.60;13.20;;;;;;;10.92;100.00;99744.16;5094629;28;20087;-50
2024/03/03 00:57:43;;;;;;;17.45;11.88;;;;;;;10.95;100.00;99753.75;5094567;28;20051;-47
2024/03/03 01:00:12;;;;;;;18.52;12.15;;;;;;;10.92;100.00;99743.28;5094744;28;20048;-46
2024/03/03 01:02:40;;;;;;;21.40;12.88;;;;;;;10.97;100.00;99738.47;5094374;28;20055;-46
2024/03/03 01:05:10;;;;;;;20.65;12.32;;;;;;;10.82;100.00;99738.59;5094438;28;20063;-48
2024/03/03 01:07:40;;;;;;;19.65;12.45;;;;;;;10.87;100.00;99735.59;5094482;28;20083;-46
2024/03/03 01:10:10;;;;;;;17.30;11.45;;;;;;;10.87;100.00;99741.78;5094295;28;20066;-47
2024/03/03 01:12:38;;;;;;;18.67;11.68;;;;;;;10.87;100.00;99741.78;5094671;28;20052;-45
2024/03/03 01:15:08;;;;;;;23.00;12.13;;;;;;;10.85;100.00;99743.72;5094724;28;20040;-46
2024/03/03 01:17:36;;;;;;;17.58;11.65;;;;;;;10.86;100.00;99740.06;5094206;28;20209;-49
2024/03/03 01:20:07;;;;;;;18.27;11.95;;;;;;;10.89;100.00;99744.34;5094327;28;20051;-45
2024/03/03 01:22:37;;;;;;;17.90;11.20;;;;;;;10.90;100.00;99735.38;5094002;28;20131;-46
2024/03/03 01:25:08;;;;;;;18.25;11.48;;;;;;;10.84;100.00;99736.66;5094296;28;20420;-46
2024/03/03 01:27:36;;;;;;;17.25;11.68;;;;;;;10.86;100.00;99734.75;5093951;28;20048;-47
2024/03/03 01:30:06;;;;;;;16.80;11.27;;;;;;;10.87;100.00;99735.59;5094415;28;20365;-46
2024/03/03 01:32:35;;;;;;;19.08;11.15;;;;;;;10.84;100.00;99730.47;5093783;28;20080;-47
2024/03/03 01:35:04;;;;;;;17.55;10.98;;;;;;;10.89;100.00;99729.19;5093917;28;20142;-47
2024/03/03 01:37:32;;;;;;;18.20;11.90;;;;;;;10.97;100.00;99725.97;5094042;28;20044;-47
2024/03/03 01:40:00;;;;;;;19.27;11.07;;;;;;;11.01;100.00;99723.97;5093805;28;20051;-44
2024/03/03 01:42:30;;;;;;;16.35;11.13;;;;;;;10.94;100.00;99723.53;5093772;28;20131;-45
2024/03/03 01:44:59;;;;;;;16.95;11.63;;;;;;;10.91;100.00;99725.59;5093494;28;20048;-46
2024/03/03 01:47:28;;;;;;;17.17;11.40;;;;;;;10.94;100.00;99720.03;5093600;28;20055;-45
2024/03/03 01:49:57;;;;;;;18.58;11.30;;;;;;;10.96;100.00;99720.75;5093833;28;20055;-47
2024/03/03 01:52:28;;;;;;;18.25;11.95;;;;;;;11.00;100.00;99722.25;5093643;28;20044;-45
2024/03/03 01:54:57;;;;;;;17.27;11.60;;;;;;;10.92;100.00;99724.63;5093490;28;20062;-46
2024/03/03 01:57:26;;;;;;;18.35;11.30;;;;;;;10.84;100.00;99726.00;5093443;28;20083;-45
2024/03/03 01:59:56;;;;;;;18.45;11.35;;;;;;;10.91;100.00;99722.91;5092404;28;20040;-46
2024/03/03 02:02:26;;;;;;;18.63;11.30;;;;;;;10.90;100.00;99719.38;5093514;28;20056;-46
2024/03/03 02:04:57;;;;;;;21.65;11.90;;;;;;;10.85;100.00;99716.19;5095053;28;20112;-48
2024/03/03 02:07:28;;;;;;;18.20;11.27;;;;;;;10.89;100.00;99715.84;5094757;28;20489;-47
2024/03/03 02:09:57;;;;;;;19.88;11.68;;;;;;;10.98;100.00;99716.16;5093564;28;20048;-46
2024/03/03 02:12:28;;;;;;;17.95;12.30;;;;;;;10.89;100.00;99710.50;5093754;28;20075;-50
2024/03/03 02:14:57;;;;;;;18.98;11.15;;;;;;;10.95;100.00;99716.38;5093937;28;20105;-47
2024/03/03 02:17:26;;;;;;;19.20;11.68;;;;;;;10.86;100.00;99718.72;5093829;28;20083;-46
2024/03/03 02:19:57;;;;;;;19.77;12.00;;;;;;;10.90;100.00;99714.03;5092743;28;20080;-47
2024/03/03 02:22:27;;;;;;;18.13;11.23;;;;;;;10.84;100.00;99709.13;5092911;28;20062;-47
2024/03/03 02:24:56;;;;;;;17.05;11.48;;;;;;;10.75;100.00;99707.09;5092820;28;20048;-46
2024/03/03 02:27:25;;;;;;;17.40;11.32;;;;;;;10.73;100.00;99706.38;5092747;28;20055;-47
2024/03/03 02:29:54;;;;;;;19.02;11.65;;;;;;;10.64;100.00;99702.53;5092722;28;20129;-46
2024/03/03 02:32:22;;;;;;;20.90;12.18;;;;;;;10.82;100.00;99705.72;5092858;28;20044;-47
2024/03/03 02:34:51;;;;;;;19.90;12.07;;;;;;;10.70;100.00;99704.75;5092833;28;20123;-46
2024/03/03 02:37:19;;;;;;;18.92;11.65;;;;;;;10.71;100.00;99697.59;5092851;28;20066;-46
2024/03/03 02:39:49;;;;;;;20.08;11.77;;;;;;;10.65;100.00;99698.88;5092604;28;20447;-46
2024/03/03 02:42:17;;;;;;;21.75;12.50;;;;;;;10.57;100.00;99695.91;5092749;28;20059;-45
2024/03/03 02:44:46;;;;;;;19.20;11.55;;;;;;;10.65;100.00;99701.56;5092829;28;20090;-47
2024/03/03 02:47:14;;;;;;;18.88;12.05;;;;;;;10.64;100.00;99702.53;5092386;28;20453;-47
2024/03/03 02:49:43;;;;;;;18.45;10.80;;;;;;;10.65;100.00;99698.88;5092496;28;20044;-46
2024/03/03 02:52:11;;;;;;;17.45;11.30;;;;;;;10.57;100.00;99690.56;5092294;28;20040;-47
2024/03/03 02:54:40;;;;;;;19.30;11.77;;;;;;;10.51;100.00;99694.50;5092167;28;20064;-45
2024/03/03 02:57:09;;;;;;;18.13;11.52;;;;;;;10.62;100.00;99683.09;5092383;28;20044;-45
2024/03/03 02:59:38;;;;;;;18.92;11.68;;;;;;;10.75;100.00;99694.63;5092540;28;20040;-45
2024/03/03 03:02:06;;;;;;;20.58;12.90;;;;;;;10.72;100.00;99697.50;5092094;28;20044;-53
2024/03/03 03:04:35;;;;;;;18.83;11.65;;;;;;;10.78;100.00;99693.53;5091803;28;20048;-47
2024/03/03 03:07:03;;;;;;;17.90;11.50;;;;;;;10.85;100.00;99690.34;5091796;28;20052;-47
2024/03/03 03:09:31;;;;;;;17.90;11.45;;;;;;;10.88;100.00;99687.47;5092133;28;20049;-47
2024/03/03 03:12:00;;;;;;;17.77;11.10;;;;;;;10.86;100.00;99692.06;5092191;28;20144;-47
2024/03/03 03:14:29;;;;;;;17.60;11.13;;;;;;;10.86;100.00;99691.19;5092372;28;20048;-46
2024/03/03 03:16:58;;;;;;;19.92;12.30;;;;;;;10.71;100.00;99682.47;5092072;28;20507;-48
2024/03/03 03:19:30;;;;;;;17.27;10.85;;;;;;;10.52;100.00;99682.03;5092170;28;20384;-49
2024/03/03 03:21:58;;;;;;;21.77;12.38;;;;;;;10.58;100.00;99681.59;5092273;28;20048;-46
2024/03/03 03:24:29;;;;;;;18.52;11.88;;;;;;;10.71;100.00;99681.59;5092053;28;20052;-46
2024/03/03 03:26:57;;;;;;;18.55;11.40;;;;;;;10.74;100.00;99681.41;5091807;28;20155;-45
2024/03/03 03:29:25;;;;;;;17.45;11.90;;;;;;;10.54;100.00;99678.31;5091936;28;20044;-47
2024/03/03 03:31:55;;;;;;;19.92;12.20;;;;;;;10.76;100.00;99680.31;5091706;28;20397;-46
2024/03/03 03:34:24;;;;;;;21.02;12.40;;;;;;;10.70;100.00;99683.41;5091621;28;20044;-47
2024/03/03 03:36:54;;;;;;;19.67;12.32;;;;;;;10.70;100.00;99679.88;5091579;28;20083;-47
2024/03/03 03:39:23;;;;;;;19.15;12.48;;;;;;;10.78;100.00;99689.06;5091807;28;20051;-45
2024/03/03 03:41:52;;;;;;;20.45;11.88;;;;;;;10.85;100.00;99685.00;5091999;28;20044;-46
2024/03/03 03:44:20;;;;;;;18.33;11.77;;;;;;;10.69;100.00;99689.69;5092712;28;20056;-46
2024/03/03 03:46:49;;;;;;;19.10;12.13;;;;;;;10.73;100.00;99685.03;5094591;28;20412;-45
2024/03/03 03:49:19;;;;;;;20.35;13.15;;;;;;;10.68;100.00;99688.00;5091539;28;20048;-47
2024/03/03 03:51:47;;;;;;;16.70;11.43;;;;;;;10.73;100.00;99680.53;5091540;28;20054;-45
2024/03/03 03:54:15;;;;;;;20.50;12.55;;;;;;;10.79;100.00;99685.44;5091246;28;20521;-48
2024/03/03 03:56:44;;;;;;;19.98;12.20;;;;;;;10.72;100.00;99684.19;5091270;28;20681;-46
2024/03/03 03:59:12;;;;;;;21.20;12.43;;;;;;;10.69;100.00;99688.84;5091487;28;20059;-47
2024/03/03 04:01:40;;;;;;;22.65;12.55;;;;;;;10.71;100.00;99685.13;5091427;28;20051;-46
2024/03/03 04:04:10;;;;;;;21.48;11.82;;;;;;;10.71;100.00;99693.13;5091493;28;20043;-46
2024/03/03 04:06:40;;;;;;;21.20;12.45;;;;;;;10.73;100.00;99688.53;5091093;28;20135;-48
2024/03/03 04:09:08;;;;;;;20.13;12.32;;;;;;;10.71;100.00;99679.81;5091374;28;20040;-47
2024/03/03 04:11:40;;;;;;;20.77;12.48;;;;;;;10.74;100.00;99682.25;5091122;28;20070;-46
2024/03/03 04:14:08;;;;;;;21.20;12.82;;;;;;;10.69;100.00;99679.03;5091118;28;20071;-48
2024/03/03 04:16:36;;;;;;;22.65;12.40;;;;;;;10.73;100.00;99687.69;5091005;28;20588;-47
2024/03/03 04:19:04;;;;;;;20.83;12.70;;;;;;;10.73;100.00;99685.88;5091126;28;20047;-48
2024/03/03 04:21:33;;;;;;;19.92;13.15;;;;;;;10.72;100.00;99680.66;5090470;28;20039;-47
2024/03/03 04:24:03;;;;;;;19.25;12.65;;;;;;;10.72;100.00;99680.66;5090988;28;20123;-46
2024/03/03 04:26:31;;;;;;;20.92;12.73;;;;;;;10.74;100.00;99682.25;5090790;28;20401;-46
2024/03/03 04:28:59;;;;;;;20.10;12.00;;;;;;;10.80;100.00;99681.81;5091181;28;20501;-47
2024/03/03 04:31:28;;;;;;;20.92;12.23;;;;;;;10.75;100.00;99673.28;5091137;28;20067;-50
2024/03/03 04:33:57;;;;;;;19.23;12.13;;;;;;;10.77;100.00;99675.84;5090836;28;20040;-46
2024/03/03 04:36:25;;;;;;;20.30;12.38;;;;;;;10.81;100.00;99672.88;5090865;28;20156;-46
2024/03/03 04:38:54;;;;;;;19.75;12.63;;;;;;;10.84;100.00;99679.78;5090995;28;20117;-47
2024/03/03 04:41:24;;;;;;;19.40;12.68;;;;;;;10.77;100.00;99687.34;5090707;28;20134;-47
2024/03/03 04:43:52;;;;;;;22.02;12.75;;;;;;;10.78;100.00;99689.06;5090739;28;20058;-48
2024/03/03 04:46:20;;;;;;;20.58;13.23;;;;;;;10.73;100.00;99685.88;5090586;28;20499;-46
2024/03/03 04:48:49;;;;;;;22.60;13.30;;;;;;;10.69;100.00;99695.03;5090677;28;20056;-47
2024/03/03 04:51:17;;;;;;;23.30;14.52;;;;;;;10.41;100.00;99684.56;5090652;28;20412;-48
2024/03/03 04:53:46;;;;;;;25.70;14.10;;;;;;;10.38;100.00;99684.78;5090488;28;20044;-47
2024/03/03 04:56:17;;;;;;;24.70;15.05;;;;;;;10.47;100.00;99689.50;5090619;28;20048;-47
2024/03/03 04:58:46;;;;;;;26.75;14.90;;;;;;;10.49;100.00;99687.56;5090752;28;20504;-44
2024/03/03 05:01:15;;;;;;;23.33;14.85;;;;;;;10.43;100.00;99680.00;5090476;28;20051;-48
2024/03/03 05:03:43;;;;;;;26.17;15.27;;;;;;;10.52;100.00;99688.22;5090517;28;20047;-46
2024/03/03 05:06:12;;;;;;;23.67;15.63;;;;;;;10.55;100.00;99689.81;5090223;28;20044;-47
2024/03/03 05:08:40;;;;;;;25.15;16.38;;;;;;;10.53;100.00;99678.41;5090549;28;20070;-47
2024/03/03 05:11:08;;;;;;;25.63;16.00;;;;;;;10.17;100.00;99682.59;5090457;28;20044;-46
2024/03/03 05:13:38;;;;;;;25.88;16.70;;;;;;;10.38;100.00;99684.78;5090535;28;20131;-45
2024/03/03 05:16:09;;;;;;;27.25;15.73;;;;;;;10.48;100.00;99683.19;5090641;28;20500;-45
2024/03/03 05:18:37;;;;;;;24.02;16.10;;;;;;;10.56;100.00;99688.84;5091015;28;20052;-46
2024/03/03 05:21:05;;;;;;;28.23;16.23;;;;;;;10.64;100.00;99691.84;5091401;28;20446;-46
2024/03/03 05:23:34;;;;;;;23.23;15.05;;;;;;;10.55;100.00;99698.66;5090569;28;20044;-48
2024/03/03 05:26:02;;;;;;;25.15;15.52;;;;;;;10.57;100.00;99698.56;5090289;28;20051;-47
2024/03/03 05:28:30;;;;;;;25.67;15.23;;;;;;;10.32;100.00;99692.22;5090292;28;20044;-45
2024/03/03 05:31:01;;;;;;;26.52;15.38;;;;;;;10.34;100.00;99694.81;5090344;28;20051;-45
2024/03/03 05:33:31;;;;;;;22.88;14.63;;;;;;;10.49;100.00;99699.06;5090498;28;20082;-46
2024/03/03 05:35:59;;;;;;;23.58;15.15;;;;;;;10.20;100.00;99693.03;5094103;28;20056;-48
2024/03/03 05:38:28;;;;;;;26.40;16.13;;;;;;;10.04;100.00;99687.03;5094102;28;20050;-48
2024/03/03 05:40:56;;;;;;;24.20;15.50;;;;;;;10.03;100.00;99678.16;5093983;28;20104;-45
2024/03/03 05:43:25;;;;;;;22.77;15.10;;;;;;;10.05;100.00;99678.09;5093714;28;20048;-47
2024/03/03 05:45:54;;;;;;;22.23;15.48;;;;;;;9.98;100.00;99682.09;5093551;28;20048;-47
2024/03/03 05:48:22;;;;;;;25.92;16.08;;;;;;;9.94;100.00;99675.25;5093455;28;20052;-46
2024/03/03 05:50:52;;;;;;;28.25;16.73;;;;;;;9.95;100.00;99677.00;5093811;28;20134;-45
2024/03/03 05:53:20;;;;;;;25.75;16.08;;;;;;;9.95;100.00;99679.66;5093623;28;20044;-48
2024/03/03 05:55:49;;;;;;;24.60;15.57;;;;;;;9.95;100.00;99671.66;5093305;28;20058;-44
2024/03/03 05:58:17;;;;;;;24.77;15.70;;;;;;;9.94;100.00;99686.81;5093537;28;20044;-46
2024/03/03 06:00:46;;;;;;;28.10;16.30;;;;;;;10.02;100.00;99689.78;5093622;28;20401;-47
2024/03/03 06:03:15;;;;;;;22.65;15.80;;;;;;;10.15;100.00;99689.84;5093339;28;20126;-45
2024/03/03 06:05:43;;;;;;;23.98;15.38;;;;;;;10.26;100.00;99695.31;5093527;28;20055;-47
2024/03/03 06:08:16;;;;;;;23.63;15.27;;;;;;;10.25;100.00;99700.75;5093181;28;20060;-44
2024/03/03 06:10:44;;;;;;;24.23;15.10;;;;;;;10.35;100.00;99714.31;5093270;28;20055;-46
2024/03/03 06:13:13;;;;;;;25.05;15.07;;;;;;;10.36;100.00;99708.03;5093085;28;20040;-45
2024/03/03 06:15:41;;;;;;;24.85;15.73;;;;;;;10.27;100.00;99707.69;5093244;28;20048;-44
2024/03/03 06:18:09;;;;;;;22.80;15.07;;;;;;;10.12;100.00;99700.69;5093224;28;20072;-45
2024/03/03 06:20:38;;;;;;;22.88;15.00;;;;;;;10.22;100.00;99709.81;5093220;28;20040;-46
2024/03/03 06:23:06;;;;;;;25.08;15.50;;;;;;;10.34;100.00;99715.28;5093212;28;20072;-47
2024/03/03 06:25:36;;;;;;;24.77;15.82;;;;;;;10.17;100.00;99709.22;5092952;28;20048;-46
2024/03/03 06:28:05;;;;;;;20.85;14.52;;;;;;;10.08;100.00;99709.84;5092421;28;20082;-47
2024/03/03 06:30:33;;;;;;;23.77;15.07;;;;;;;10.11;100.00;99714.97;5092485;28;20477;-45
2024/03/03 06:33:02;;;;;;;24.33;14.68;;;;;;;10.20;100.00;99719.69;5092369;28;20048;-46
2024/03/03 06:35:30;;;;;;;22.45;14.50;;;;;;;10.42;100.00;99708.47;5092800;28;20048;-47
2024/03/03 06:38:00;;;;;;;23.67;14.73;;;;;;;10.54;100.00;99712.13;5092825;28;20048;-46
2024/03/03 06:40:28;;;;;;;24.90;14.45;;;;;;;10.58;100.00;99721.59;5092999;28;20425;-46
2024/03/03 06:42:58;;;;;;;21.58;14.18;;;;;;;10.22;100.00;99720.47;5092688;28;20048;-46
2024/03/03 06:45:27;;;;;;;21.45;14.68;;;;;;;10.13;100.00;99720.19;5092112;28;20074;-47
2024/03/03 06:47:55;;;;;;;21.85;14.52;;;;;;;10.25;100.00;99717.59;5092686;28;20105;-47
2024/03/03 06:50:23;;;;;;;23.48;14.52;;;;;;;10.34;100.00;99717.94;5092542;28;20044;-47
2024/03/03 06:52:51;;;;;;;20.77;13.95;;;;;;;10.51;100.00;99721.16;5092478;28;20048;-47
2024/03/03 06:55:20;;;;;;;21.85;14.77;;;;;;;10.31;100.00;99717.19;5093178;28;20761;-47
2024/03/03 06:57:49;;;;;;;22.85;14.15;;;;;;;10.43;100.00;99723.50;5093322;28;20044;-45
2024/03/03 07:00:20;;;;;;;22.00;14.23;;;;;;;10.60;100.00;99719.66;5092415;28;20431;-45
2024/03/03 07:03:13;;;;;;;24.23;14.82;;;;;;;10.54;100.00;99728.97;5088244;28;20131;-45
2024/03/03 07:05:42;;;;;;;21.30;13.40;;;;;;;10.67;100.00;99739.63;5090708;28;20590;-44
2024/03/03 07:08:10;;;;;;;23.80;14.82;;;;;;;10.74;100.00;99737.41;5090432;28;20044;-46
2024/03/03 07:10:39;;;;;;;23.33;13.82;;;;;;;10.78;100.00;99737.09;5091497;28;20066;-45
2024/03/03 07:13:07;;;;;;;23.27;14.38;;;;;;;10.78;100.00;99742.41;5091348;28;20180;-48
2024/03/03 07:15:38;;;;;;;21.75;14.05;;;;;;;10.84;100.00;99747.34;5091806;28;20048;-45
2024/03/03 07:18:06;;;;;;;31.10;19.98;;;;;;;10.95;100.00;99753.75;5089812;28;20500;-45
2024/03/03 07:20:36;;;;;;;24.55;15.57;;;;;;;10.79;100.00;99752.13;5091817;28;20443;-46
2024/03/03 07:23:04;;;;;;;22.27;14.15;;;;;;;10.88;100.00;99759.50;5091386;28;20058;-46
2024/03/03 07:25:32;;;;;;;22.98;13.90;;;;;;;11.06;100.00;99761.84;5092167;28;20048;-46
2024/03/03 07:28:01;;;;;;;21.95;13.77;;;;;;;10.95;100.00;99761.75;5093056;28;20044;-46
2024/03/03 07:30:29;;;;;;;22.20;13.95;;;;;;;10.59;100.00;99753.50;5070954;28;20051;-48
2024/03/03 07:32:59;;;;;;;24.00;14.55;;;;;;;10.51;100.00;99744.31;5080367;28;20055;-46
2024/03/03 07:35:29;;;;;;;22.38;14.50;;;;;;;10.71;100.00;99735.81;5090096;28;20051;-47
2024/03/03 07:37:57;;;;;;;22.88;14.68;;;;;;;10.83;100.00;99745.63;5090256;28;20052;-47
2024/03/03 07:40:29;;;;;;;21.77;14.77;;;;;;;10.92;100.00;99756.63;5090592;28;20147;-44
2024/03/03 07:42:57;;;;;;;24.70;14.80;;;;;;;10.83;100.00;99748.31;5090755;28;20382;-45
2024/03/03 07:45:26;;;;;;;23.17;14.30;;;;;;;11.02;100.00;99744.34;5091426;28;20052;-44
2024/03/03 07:47:54;;;;;;;23.02;14.45;;;;;;;10.98;100.00;99733.03;5090427;28;20126;-47
2024/03/03 07:50:24;;;;;;;24.13;14.68;;;;;;;11.02;100.00;99742.53;5090011;28;20062;-45
2024/03/03 07:52:53;;;;;;;22.33;15.40;;;;;;;11.13;100.00;99742.63;5090151;28;20044;-46
2024/03/03 07:55:21;;;;;;;22.83;14.00;;;;;;;11.04;100.00;99745.09;5090946;28;20121;-46
2024/03/03 07:57:49;;;;;;;21.27;14.10;;;;;;;10.85;100.00;99738.38;5089657;28;20083;-45
2024/03/03 08:00:18;;;;;;;24.17;14.77;;;;;;;10.60;100.00;99735.69;5089423;28;20044;-45
2024/03/03 08:02:46;;;;;;;22.60;14.75;;;;;;;10.77;100.00;99739.84;5090331;28;20437;-45
2024/03/03 08:05:15;;;;;;;21.80;14.15;;;;;;;10.74;100.00;99738.25;5090764;28;20043;-45
2024/03/03 08:07:45;;;;;;;24.27;14.50;;;;;;;10.72;100.00;99737.53;5090571;28;20044;-45
2024/03/03 08:10:13;;;;;;;22.35;14.95;;;;;;;10.78;100.00;99737.09;5088725;28;20540;-45
2024/03/03 08:12:42;;;;;;;22.00;13.77;;;;;;;10.85;100.00;99737.53;5090097;28;20040;-47
2024/03/03 08:15:10;;;;;;;23.23;14.85;;;;;;;10.75;100.00;99744.47;5090592;28;20040;-44
2024/03/03 08:17:38;;;;;;;23.95;15.05;;;;;;;10.77;100.00;99737.19;5090400;28;20052;-45
2024/03/03 08:20:08;;;;;;;22.20;14.40;;;;;;;10.80;100.00;99739.63;5088722;28;20474;-45
2024/03/03 08:22:36;;;;;;;25.60;14.90;;;;;;;10.89;100.00;99744.34;5089877;28;20040;-48
2024/03/03 08:25:11;;;;;;;23.00;15.30;;;;;;;10.96;100.00;99739.44;5090385;28;20048;-46
2024/03/03 08:27:40;;;;;;;23.10;14.98;;;;;;;11.07;100.00;99739.53;5091290;28;20083;-46
2024/03/03 08:30:11;;;;;;;23.42;14.75;;;;;;;11.16;100.00;99737.06;5088396;28;20044;-45
2024/03/03 08:32:40;;;;;;;22.10;14.85;;;;;;;11.13;100.00;99737.31;5090445;28;20048;-44
2024/03/03 08:35:09;;;;;;;20.95;14.25;;;;;;;11.05;100.00;99734.31;5090250;28;20350;-45
2024/03/03 08:37:40;;;;;;;21.48;15.13;;;;;;;11.02;100.00;99723.00;5090702;28;20044;-46
2024/03/03 08:40:10;;;;;;;23.02;15.88;;;;;;;10.92;100.00;99716.63;5087163;28;20165;-45
2024/03/03 08:42:38;;;;;;;22.30;15.30;;;;;;;11.05;100.00;99714.78;5089969;28;20514;-46
2024/03/03 08:45:07;;;;;;;21.95;14.55;;;;;;;11.07;100.00;99726.19;5090065;28;20453;-46
2024/03/03 08:47:35;;;;;;;23.67;14.65;;;;;;;11.14;100.00;99740.81;5090262;28;20105;-47
2024/03/03 08:50:05;;;;;;;30.23;18.73;;;;;;;11.39;100.00;99740.78;5088405;28;20101;-45
2024/03/03 08:52:34;;;;;;;23.17;15.50;;;;;;;11.43;100.00;99738.75;5090018;28;20060;-44
2024/03/03 08:55:03;;;;;;;23.88;15.00;;;;;;;11.28;100.00;99734.50;5089791;28;20640;-46
2024/03/03 08:57:33;;;;;;;25.45;15.52;;;;;;;11.09;100.00;99734.94;5090142;28;20055;-45
2024/03/03 09:00:02;;;;;;;24.33;15.70;;;;;;;11.20;100.00;99729.72;5086998;28;20435;-47
2024/03/03 09:02:31;;;;;;;23.13;14.95;;;;;;;11.14;100.00;99717.66;5089693;28;20056;-45
2024/03/03 09:05:01;;;;;;;24.73;14.50;;;;;;;11.18;100.00;99724.47;5087915;28;20093;-47
2024/03/03 09:07:29;;;;;;;24.48;15.10;;;;;;;11.29;100.00;99723.72;5089600;28;20044;-44
2024/03/03 09:09:58;;;;;;;22.60;15.30;;;;;;;11.20;100.00;99718.19;5091254;28;20174;-46
2024/03/03 09:12:27;;;;;;;22.50;15.07;;;;;;;11.16;100.00;99722.88;5093118;28;20378;-45
2024/03/03 09:14:57;;;;;;;24.55;16.17;;;;;;;11.14;100.00;99716.78;5094076;28;20382;-45
2024/03/03 09:17:25;;;;;;;23.88;15.10;;;;;;;11.16;100.00;99712.19;5092733;28;20417;-47
2024/03/03 09:19:54;;;;;;;27.95;15.82;;;;;;;11.39;100.00;99715.91;5092417;28;20193;-45
2024/03/03 09:22:22;;;;;;;21.95;14.52;;;;;;;11.82;100.00;99713.66;5093715;28;20105;-48
2024/03/03 09:24:51;;;;;;;24.00;14.95;;;;;;;11.69;100.00;99715.50;5094367;28;20104;-46
2024/03/03 09:27:20;;;;;;;23.70;15.68;;;;;;;11.99;100.00;99713.25;5094207;28;20089;-45
2024/03/03 09:29:48;;;;;;;25.23;15.48;;;;;;;11.83;100.00;99712.69;5091776;28;20055;-45
2024/03/03 09:32:18;;;;;;;25.83;15.15;;;;;;;11.86;100.00;99709.78;5090483;28;20059;-47
2024/03/03 09:34:46;;;;;;;21.88;15.15;;;;;;;11.81;100.00;99706.59;5092839;28;20424;-45
2024/03/03 09:37:15;;;;;;;23.40;15.40;;;;;;;11.90;100.00;99702.41;5092816;28;20076;-46
2024/03/03 09:39:44;;;;;;;24.48;15.13;;;;;;;12.12;100.00;99707.84;5091749;28;20079;-47
2024/03/03 09:42:12;;;;;;;21.35;15.20;;;;;;;12.22;100.00;99700.84;5093078;28;20162;-47
2024/03/03 09:44:43;;;;;;;23.48;14.70;;;;;;;12.29;100.00;99706.56;5092945;28;20055;-44
2024/03/03 09:47:13;;;;;;;20.95;15.00;;;;;;;12.35;100.00;99706.09;5093665;28;20055;-46
2024/03/03 09:49:43;;;;;;;23.20;15.05;;;;;;;12.19;100.00;99703.75;5091666;28;20055;-47
2024/03/03 09:52:14;;;;;;;22.75;15.18;;;;;;;12.45;100.00;99706.25;5092958;28;20076;-45
2024/03/03 09:54:44;;;;;;;24.17;15.15;;;;;;;12.37;100.00;99701.50;5092397;28;20397;-48
2024/03/03 09:57:13;;;;;;;22.80;14.75;;;;;;;12.27;100.00;99701.34;5093222;28;20051;-46
2024/03/03 09:59:42;;;;;;;22.02;14.13;;;;;;;12.41;100.00;99704.78;5091986;28;20401;-45
2024/03/03 10:02:15;;;;;;;21.75;14.27;;;;;;;12.46;100.00;99706.16;5092832;28;20040;-45
2024/03/03 10:04:46;;;;;;;24.98;14.63;;;;;;;12.50;100.00;99710.28;5091808;28;20044;-47
2024/03/03 10:07:22;;;;;;;20.83;14.05;;;;;;;12.43;100.00;99708.19;5092667;28;20134;-45
2024/03/03 10:09:59;;;;;;;24.90;14.77;;;;;;;12.46;100.00;99708.81;5091803;28;20044;-45
2024/03/03 10:12:32;;;;;;;22.90;14.70;;;;;;;12.41;100.00;99692.25;5092152;28;20076;-45
2024/03/03 10:15:01;;;;;;;23.70;13.88;;;;;;;12.45;100.00;99698.22;5092589;28;20040;-45
2024/03/03 10:17:29;;;;;;;22.52;14.60;;;;;;;12.39;100.00;99691.53;5093091;28;20105;-47
2024/03/03 10:20:05;;;;;;;23.13;14.70;;;;;;;12.51;100.00;99679.03;5090476;28;20048;-45
2024/03/03 10:22:34;;;;;;;20.80;14.05;;;;;;;12.58;100.00;99681.13;5092357;28;20044;-45
2024/03/03 10:25:13;;;;;;;23.15;14.32;;;;;;;12.65;100.00;99683.34;5092703;28;20048;-45
2024/03/03 10:27:43;;;;;;;25.30;15.52;;;;;;;12.88;100.00;99677.03;5092424;28;20098;-45
2024/03/03 10:30:14;;;;;;;24.23;15.38;;;;;;;12.90;100.00;99691.13;5090857;28;20439;-44
2024/03/03 10:32:44;;;;;;;26.73;15.38;;;;;;;12.72;100.00;99693.41;5091765;28;20048;-45
2024/03/03 10:35:16;;;;;;;23.65;14.68;;;;;;;12.92;100.00;99683.81;5092502;28;20044;-45
2024/03/03 10:37:49;;;;;;;22.00;14.90;;;;;;;12.89;100.00;99690.28;5092688;28;20043;-47
2024/03/03 10:40:17;;;;;;;24.83;15.30;;;;;;;13.07;100.00;99687.97;5090636;28;20071;-44
2024/03/03 10:42:46;;;;;;;19.75;14.70;;;;;;;13.15;100.00;99685.56;5091781;28;20409;-46
2024/03/03 10:45:14;;;;;;;23.20;15.65;;;;;;;13.29;100.00;99675.56;5092660;28;20044;-45
2024/03/03 10:47:43;;;;;;;23.05;15.20;;;;;;;13.33;100.00;99687.78;5092360;28;20443;-45
2024/03/03 10:50:16;;;;;;;21.67;14.82;;;;;;;13.29;100.00;99681.78;5090839;28;20048;-46
2024/03/03 10:52:45;;;;;;;25.67;16.20;;;;;;;13.25;100.00;99669.63;5091398;28;20040;-45
2024/03/03 10:55:15;;;;;;;23.88;15.70;;;;;;;13.31;100.00;99662.91;5091858;28;20377;-45
2024/03/03 10:57:44;;;;;;;25.33;16.08;;;;;;;13.52;100.00;99661.19;5091826;28;20485;-46
2024/03/03 11:00:22;;;;;;;22.75;15.18;;;;;;;13.40;100.00;99667.53;5090598;28;20453;-46
2024/03/03 11:02:51;;;;;;;22.15;14.95;;;;;;;13.74;100.00;99657.59;5091811;28;20078;-45
2024/03/03 11:05:25;;;;;;;23.38;15.82;;;;;;;13.69;100.00;99651.75;5092079;28;20044;-47
2024/03/03 11:08:00;;;;;;;20.63;14.48;;;;;;;13.79;100.00;99651.84;5091132;28;20044;-44
2024/03/03 11:10:29;;;;;;;24.08;15.85;;;;;;;13.77;100.00;99637.72;5093012;28;20056;-45
2024/03/03 11:12:59;;;;;;;20.95;13.75;;;;;;;14.19;100.00;99631.44;5091440;28;20062;-48
2024/03/03 11:15:29;;;;;;;22.08;15.23;;;;;;;14.08;100.00;99625.28;5091557;28;20036;-44
2024/03/03 11:18:00;;;;;;;23.27;15.27;;;;;;;14.04;100.00;99622.84;5091080;28;20048;-45